sensor_id;sensor_type;location;lat;lon;timestamp;pressure;altitude;pressure_sealevel;temperature;humidity
75551;BME280;65071;53.082;18.218;2023-06-10T00:00:42;101303.02;;;19.17;61.85
75551;BME280;65071;53.082;18.218;2023-06-10T00:03:28;101305.85;;;19.13;61.68
75551;BME280;65071;53.082;18.218;2023-06-10T00:05:56;101304.75;;;19.09;61.44
75551;BME280;65071;53.082;18.218;2023-06-10T00:08:24;101311.38;;;19.07;61.36
75551;BME280;65071;53.082;18.218;2023-06-10T00:10:50;101308.06;;;19.04;60.91
75551;BME280;65071;53.082;18.218;2023-06-10T00:13:17;101315.53;;;19.02;61.25
75551;BME280;65071;53.082;18.218;2023-06-10T00:15:43;101315.71;;;18.99;60.65
75551;BME280;65071;53.082;18.218;2023-06-10T00:18:11;101316.29;;;18.97;60.91
75551;BME280;65071;53.082;18.218;2023-06-10T00:20:38;101319.16;;;18.95;61.19
75551;BME280;65071;53.082;18.218;2023-06-10T00:23:05;101323.92;;;18.92;61.41
75551;BME280;65071;53.082;18.218;2023-06-10T00:25:34;101321.86;;;18.88;61.54
75551;BME280;65071;53.082;18.218;2023-06-10T00:28:01;101331.95;;;18.85;61.51
75551;BME280;65071;53.082;18.218;2023-06-10T00:30:29;101331.19;;;18.81;61.70
75551;BME280;65071;53.082;18.218;2023-06-10T00:32:56;101334.50;;;18.78;61.04
75551;BME280;65071;53.082;18.218;2023-06-10T00:35:22;101332.91;;;18.74;61.76
75551;BME280;65071;53.082;18.218;2023-06-10T00:37:49;101332.98;;;18.69;61.83
75551;BME280;65071;53.082;18.218;2023-06-10T00:40:16;101334.08;;;18.66;61.81
75551;BME280;65071;53.082;18.218;2023-06-10T00:42:42;101336.02;;;18.64;61.91
75551;BME280;65071;53.082;18.218;2023-06-10T00:45:09;101335.96;;;18.61;61.65
75551;BME280;65071;53.082;18.218;2023-06-10T00:47:36;101337.24;;;18.60;61.64
75551;BME280;65071;53.082;18.218;2023-06-10T00:50:03;101335.49;;;18.58;62.15
75551;BME280;65071;53.082;18.218;2023-06-10T00:52:30;101339.27;;;18.57;61.80
75551;BME280;65071;53.082;18.218;2023-06-10T00:54:57;101339.83;;;18.55;62.51
75551;BME280;65071;53.082;18.218;2023-06-10T00:57:25;101340.52;;;18.52;63.14
75551;BME280;65071;53.082;18.218;2023-06-10T00:59:53;101340.50;;;18.48;63.25
75551;BME280;65071;53.082;18.218;2023-06-10T01:02:20;101338.56;;;18.43;63.56
75551;BME280;65071;53.082;18.218;2023-06-10T01:04:47;101340.40;;;18.40;63.33
75551;BME280;65071;53.082;18.218;2023-06-10T01:07:33;101341.04;;;18.38;62.88
75551;BME280;65071;53.082;18.218;2023-06-10T01:10:14;101344.67;;;18.37;63.18
75551;BME280;65071;53.082;18.218;2023-06-10T01:15:16;101348.48;;;18.32;62.91
75551;BME280;65071;53.082;18.218;2023-06-10T01:17:56;101346.39;;;18.33;62.47
75551;BME280;65071;53.082;18.218;2023-06-10T01:20:28;101351.70;;;18.30;63.29
75551;BME280;65071;53.082;18.218;2023-06-10T01:22:58;101350.75;;;18.30;62.38
75551;BME280;65071;53.082;18.218;2023-06-10T01:25:26;101349.41;;;18.29;62.58
75551;BME280;65071;53.082;18.218;2023-06-10T01:30:43;101351.55;;;18.27;62.81
75551;BME280;65071;53.082;18.218;2023-06-10T01:33:13;101353.82;;;18.26;62.73
75551;BME280;65071;53.082;18.218;2023-06-10T01:35:43;101363.83;;;18.27;62.43
75551;BME280;65071;53.082;18.218;2023-06-10T01:38:12;101361.45;;;18.25;62.39
75551;BME280;65071;53.082;18.218;2023-06-10T01:40:41;101366.27;;;18.24;62.34
75551;BME280;65071;53.082;18.218;2023-06-10T01:43:08;101365.11;;;18.23;62.08
75551;BME280;65071;53.082;18.218;2023-06-10T01:45:35;101366.66;;;18.22;61.95
75551;BME280;65071;53.082;18.218;2023-06-10T01:48:02;101367.19;;;18.21;62.05
75551;BME280;65071;53.082;18.218;2023-06-10T01:50:28;101372.91;;;18.19;61.93
75551;BME280;65071;53.082;18.218;2023-06-10T01:52:57;101377.95;;;18.17;61.70
75551;BME280;65071;53.082;18.218;2023-06-10T01:55:24;101383.14;;;18.14;61.54
75551;BME280;65071;53.082;18.218;2023-06-10T01:57:51;101383.76;;;18.11;61.36
75551;BME280;65071;53.082;18.218;2023-06-10T02:00:18;101384.19;;;18.09;61.17
75551;BME280;65071;53.082;18.218;2023-06-10T02:02:45;101381.67;;;18.07;61.16
75551;BME280;65071;53.082;18.218;2023-06-10T02:05:11;101383.70;;;18.05;61.08
75551;BME280;65071;53.082;18.218;2023-06-10T02:07:38;101386.83;;;18.04;60.91
75551;BME280;65071;53.082;18.218;2023-06-10T02:10:06;101383.16;;;18.03;60.60
75551;BME280;65071;53.082;18.218;2023-06-10T02:12:33;101385.50;;;18.01;60.54
75551;BME280;65071;53.082;18.218;2023-06-10T02:15:00;101390.09;;;17.99;60.81
75551;BME280;65071;53.082;18.218;2023-06-10T02:17:26;101390.65;;;17.98;60.55
75551;BME280;65071;53.082;18.218;2023-06-10T02:19:53;101393.59;;;17.96;60.58
75551;BME280;65071;53.082;18.218;2023-06-10T02:22:23;101400.37;;;17.94;60.55
75551;BME280;65071;53.082;18.218;2023-06-10T02:24:49;101407.41;;;17.92;60.50
75551;BME280;65071;53.082;18.218;2023-06-10T02:27:17;101405.60;;;17.90;60.29
75551;BME280;65071;53.082;18.218;2023-06-10T02:29:44;101409.44;;;17.89;60.48
75551;BME280;65071;53.082;18.218;2023-06-10T02:32:11;101403.26;;;17.88;60.42
75551;BME280;65071;53.082;18.218;2023-06-10T02:34:37;101401.50;;;17.88;60.20
75551;BME280;65071;53.082;18.218;2023-06-10T02:37:04;101407.06;;;17.87;60.19
75551;BME280;65071;53.082;18.218;2023-06-10T02:39:31;101402.31;;;17.87;60.32
75551;BME280;65071;53.082;18.218;2023-06-10T02:41:58;101404.00;;;17.87;60.47
75551;BME280;65071;53.082;18.218;2023-06-10T02:44:25;101401.03;;;17.86;60.76
75551;BME280;65071;53.082;18.218;2023-06-10T02:46:51;101402.80;;;17.86;60.50
75551;BME280;65071;53.082;18.218;2023-06-10T02:49:19;101402.77;;;17.85;60.53
75551;BME280;65071;53.082;18.218;2023-06-10T02:51:45;101407.05;;;17.84;60.79
75551;BME280;65071;53.082;18.218;2023-06-10T02:54:13;101414.55;;;17.83;60.52
75551;BME280;65071;53.082;18.218;2023-06-10T02:56:40;101416.23;;;17.81;60.70
75551;BME280;65071;53.082;18.218;2023-06-10T02:59:10;101424.30;;;17.79;60.94
75551;BME280;65071;53.082;18.218;2023-06-10T03:01:37;101428.25;;;17.76;60.91
75551;BME280;65071;53.082;18.218;2023-06-10T03:04:07;101428.71;;;17.74;61.05
75551;BME280;65071;53.082;18.218;2023-06-10T03:06:35;101434.75;;;17.74;60.86
75551;BME280;65071;53.082;18.218;2023-06-10T03:09:18;101430.77;;;17.72;61.22
75551;BME280;65071;53.082;18.218;2023-06-10T03:11:46;101433.84;;;17.72;61.10
75551;BME280;65071;53.082;18.218;2023-06-10T03:14:13;101440.42;;;17.73;60.94
75551;BME280;65071;53.082;18.218;2023-06-10T03:16:39;101445.41;;;17.73;61.10
75551;BME280;65071;53.082;18.218;2023-06-10T03:19:07;101456.22;;;17.72;61.37
75551;BME280;65071;53.082;18.218;2023-06-10T03:21:35;101457.96;;;17.71;61.23
75551;BME280;65071;53.082;18.218;2023-06-10T03:24:04;101461.02;;;17.70;61.66
75551;BME280;65071;53.082;18.218;2023-06-10T03:26:31;101461.00;;;17.67;61.82
75551;BME280;65071;53.082;18.218;2023-06-10T03:28:58;101464.84;;;17.65;62.08
75551;BME280;65071;53.082;18.218;2023-06-10T03:31:25;101465.56;;;17.64;62.38
75551;BME280;65071;53.082;18.218;2023-06-10T03:33:53;101463.61;;;17.62;62.70
75551;BME280;65071;53.082;18.218;2023-06-10T03:36:20;101468.48;;;17.61;63.17
75551;BME280;65071;53.082;18.218;2023-06-10T03:38:47;101468.58;;;17.62;63.11
75551;BME280;65071;53.082;18.218;2023-06-10T03:41:14;101474.11;;;17.61;63.72
75551;BME280;65071;53.082;18.218;2023-06-10T03:43:41;101481.40;;;17.62;63.94
75551;BME280;65071;53.082;18.218;2023-06-10T03:46:08;101480.59;;;17.65;63.64
75551;BME280;65071;53.082;18.218;2023-06-10T03:48:35;101485.17;;;17.69;63.20
75551;BME280;65071;53.082;18.218;2023-06-10T03:51:03;101490.53;;;17.74;63.14
75551;BME280;65071;53.082;18.218;2023-06-10T03:53:29;101491.75;;;17.81;63.12
75551;BME280;65071;53.082;18.218;2023-06-10T03:55:56;101495.28;;;17.88;62.78
75551;BME280;65071;53.082;18.218;2023-06-10T03:58:24;101500.22;;;17.98;62.52
75551;BME280;65071;53.082;18.218;2023-06-10T04:00:51;101503.94;;;18.17;62.10
75551;BME280;65071;53.082;18.218;2023-06-10T04:03:18;101508.20;;;18.46;61.34
75551;BME280;65071;53.082;18.218;2023-06-10T04:05:50;101509.74;;;18.84;60.30
75551;BME280;65071;53.082;18.218;2023-06-10T04:08:16;101508.55;;;18.99;59.52
75551;BME280;65071;53.082;18.218;2023-06-10T04:10:43;101513.00;;;18.99;58.98
75551;BME280;65071;53.082;18.218;2023-06-10T04:13:10;101518.34;;;19.07;58.79
75551;BME280;65071;53.082;18.218;2023-06-10T04:15:40;101519.77;;;19.29;58.36
75551;BME280;65071;53.082;18.218;2023-06-10T04:18:10;101524.52;;;19.55;57.50
75551;BME280;65071;53.082;18.218;2023-06-10T04:20:37;101524.20;;;19.65;57.48
75551;BME280;65071;53.082;18.218;2023-06-10T04:23:04;101527.70;;;19.84;56.61
75551;BME280;65071;53.082;18.218;2023-06-10T04:25:30;101526.75;;;20.02;55.89
75551;BME280;65071;53.082;18.218;2023-06-10T04:27:57;101527.48;;;20.11;54.76
75551;BME280;65071;53.082;18.218;2023-06-10T04:30:24;101528.45;;;20.24;54.83
75551;BME280;65071;53.082;18.218;2023-06-10T04:32:52;101531.20;;;20.37;54.09
75551;BME280;65071;53.082;18.218;2023-06-10T04:35:19;101530.04;;;20.50;53.68
75551;BME280;65071;53.082;18.218;2023-06-10T04:37:46;101531.89;;;20.66;53.13
75551;BME280;65071;53.082;18.218;2023-06-10T04:40:13;101529.01;;;20.93;52.91
75551;BME280;65071;53.082;18.218;2023-06-10T04:42:40;101532.89;;;21.10;50.67
75551;BME280;65071;53.082;18.218;2023-06-10T04:45:07;101533.88;;;21.28;50.08
75551;BME280;65071;53.082;18.218;2023-06-10T04:47:34;101532.48;;;21.48;49.75
75551;BME280;65071;53.082;18.218;2023-06-10T04:50:02;101534.16;;;21.79;49.55
75551;BME280;65071;53.082;18.218;2023-06-10T04:52:29;101536.42;;;21.97;48.76
75551;BME280;65071;53.082;18.218;2023-06-10T04:54:58;101527.52;;;22.12;47.94
75551;BME280;65071;53.082;18.218;2023-06-10T04:57:24;101527.60;;;22.28;46.58
75551;BME280;65071;53.082;18.218;2023-06-10T04:59:52;101529.20;;;22.31;45.96
75551;BME280;65071;53.082;18.218;2023-06-10T05:02:19;101530.05;;;22.45;46.10
75551;BME280;65071;53.082;18.218;2023-06-10T05:04:45;101536.13;;;22.59;45.60
75551;BME280;65071;53.082;18.218;2023-06-10T05:07:12;101534.65;;;22.67;45.71
75551;BME280;65071;53.082;18.218;2023-06-10T05:09:39;101539.26;;;22.66;45.57
75551;BME280;65071;53.082;18.218;2023-06-10T05:12:05;101538.22;;;22.54;45.54
75551;BME280;65071;53.082;18.218;2023-06-10T05:14:32;101539.52;;;22.37;46.06
75551;BME280;65071;53.082;18.218;2023-06-10T05:16:59;101544.62;;;22.21;46.20
75551;BME280;65071;53.082;18.218;2023-06-10T05:19:25;101547.77;;;21.99;46.22
75551;BME280;65071;53.082;18.218;2023-06-10T05:21:53;101551.16;;;21.82;46.40
75551;BME280;65071;53.082;18.218;2023-06-10T05:24:20;101552.20;;;21.79;46.73
75551;BME280;65071;53.082;18.218;2023-06-10T05:26:47;101556.39;;;21.66;46.77
75551;BME280;65071;53.082;18.218;2023-06-10T05:29:15;101559.61;;;21.49;46.73
75551;BME280;65071;53.082;18.218;2023-06-10T05:31:42;101554.92;;;21.41;46.49
75551;BME280;65071;53.082;18.218;2023-06-10T05:34:08;101560.27;;;21.37;46.56
75551;BME280;65071;53.082;18.218;2023-06-10T05:36:35;101557.83;;;21.28;46.20
75551;BME280;65071;53.082;18.218;2023-06-10T05:39:01;101561.91;;;21.25;46.59
75551;BME280;65071;53.082;18.218;2023-06-10T05:41:29;101559.92;;;21.26;46.67
75551;BME280;65071;53.082;18.218;2023-06-10T05:43:55;101559.08;;;21.34;46.45
75551;BME280;65071;53.082;18.218;2023-06-10T05:46:22;101559.80;;;21.51;45.90
75551;BME280;65071;53.082;18.218;2023-06-10T05:48:49;101557.46;;;21.48;45.57
75551;BME280;65071;53.082;18.218;2023-06-10T05:51:15;101561.52;;;21.39;45.62
75551;BME280;65071;53.082;18.218;2023-06-10T05:53:42;101559.70;;;21.39;45.94
75551;BME280;65071;53.082;18.218;2023-06-10T05:56:08;101565.39;;;21.48;46.02
75551;BME280;65071;53.082;18.218;2023-06-10T05:58:35;101558.51;;;21.57;46.05
75551;BME280;65071;53.082;18.218;2023-06-10T06:01:02;101557.63;;;21.69;46.11
75551;BME280;65071;53.082;18.218;2023-06-10T06:03:28;101553.13;;;21.85;45.73
75551;BME280;65071;53.082;18.218;2023-06-10T06:05:55;101553.73;;;22.04;45.47
75551;BME280;65071;53.082;18.218;2023-06-10T06:08:21;101551.65;;;22.15;45.41
75551;BME280;65071;53.082;18.218;2023-06-10T06:10:48;101551.83;;;22.22;45.32
75551;BME280;65071;53.082;18.218;2023-06-10T06:13:15;101558.86;;;22.30;45.32
75551;BME280;65071;53.082;18.218;2023-06-10T06:15:41;101552.13;;;22.33;45.15
75551;BME280;65071;53.082;18.218;2023-06-10T06:18:08;101551.83;;;22.30;44.69
75551;BME280;65071;53.082;18.218;2023-06-10T06:20:34;101550.83;;;22.41;44.31
75551;BME280;65071;53.082;18.218;2023-06-10T06:23:01;101551.52;;;22.78;44.10
75551;BME280;65071;53.082;18.218;2023-06-10T06:25:28;101549.12;;;23.16;43.66
75551;BME280;65071;53.082;18.218;2023-06-10T06:27:54;101545.90;;;23.32;42.55
75551;BME280;65071;53.082;18.218;2023-06-10T06:30:21;101546.38;;;23.34;42.20
75551;BME280;65071;53.082;18.218;2023-06-10T06:32:47;101544.95;;;23.45;41.73
75551;BME280;65071;53.082;18.218;2023-06-10T06:35:14;101548.51;;;23.65;41.44
75551;BME280;65071;53.082;18.218;2023-06-10T06:37:41;101550.45;;;23.67;41.66
75551;BME280;65071;53.082;18.218;2023-06-10T06:40:15;101549.23;;;23.64;41.97
75551;BME280;65071;53.082;18.218;2023-06-10T06:42:42;101554.91;;;23.80;41.97
75551;BME280;65071;53.082;18.218;2023-06-10T06:45:36;101560.03;;;23.98;41.18
75551;BME280;65071;53.082;18.218;2023-06-10T06:48:03;101561.05;;;24.09;40.35
75551;BME280;65071;53.082;18.218;2023-06-10T06:50:29;101561.03;;;24.20;40.10
75551;BME280;65071;53.082;18.218;2023-06-10T06:52:57;101559.74;;;24.33;40.32
75551;BME280;65071;53.082;18.218;2023-06-10T06:55:23;101564.14;;;24.32;40.33
75551;BME280;65071;53.082;18.218;2023-06-10T06:57:50;101563.69;;;24.16;40.20
75551;BME280;65071;53.082;18.218;2023-06-10T07:00:17;101567.72;;;23.97;40.73
75551;BME280;65071;53.082;18.218;2023-06-10T07:02:43;101569.92;;;23.89;41.09
75551;BME280;65071;53.082;18.218;2023-06-10T07:05:10;101568.39;;;24.11;40.89
75551;BME280;65071;53.082;18.218;2023-06-10T07:07:36;101571.29;;;24.33;40.98
75551;BME280;65071;53.082;18.218;2023-06-10T07:10:03;101571.52;;;24.64;40.25
75551;BME280;65071;53.082;18.218;2023-06-10T07:12:30;101575.79;;;24.71;40.09
75551;BME280;65071;53.082;18.218;2023-06-10T07:14:58;101572.52;;;24.93;40.19
75551;BME280;65071;53.082;18.218;2023-06-10T07:17:24;101569.21;;;25.05;40.04
75551;BME280;65071;53.082;18.218;2023-06-10T07:19:51;101574.77;;;25.17;39.90
75551;BME280;65071;53.082;18.218;2023-06-10T07:22:17;101573.79;;;25.25;39.68
75551;BME280;65071;53.082;18.218;2023-06-10T07:24:44;101583.33;;;25.39;38.38
75551;BME280;65071;53.082;18.218;2023-06-10T07:27:11;101586.36;;;25.22;37.63
75551;BME280;65071;53.082;18.218;2023-06-10T07:29:38;101589.20;;;25.19;38.14
75551;BME280;65071;53.082;18.218;2023-06-10T07:32:04;101585.73;;;25.14;37.71
75551;BME280;65071;53.082;18.218;2023-06-10T07:34:31;101589.75;;;25.07;37.80
75551;BME280;65071;53.082;18.218;2023-06-10T07:36:58;101588.92;;;24.91;37.76
75551;BME280;65071;53.082;18.218;2023-06-10T07:39:24;101585.14;;;24.96;37.58
75551;BME280;65071;53.082;18.218;2023-06-10T07:41:51;101582.33;;;25.02;38.02
75551;BME280;65071;53.082;18.218;2023-06-10T07:44:20;101584.99;;;25.15;37.86
75551;BME280;65071;53.082;18.218;2023-06-10T07:46:46;101584.21;;;25.31;37.97
75551;BME280;65071;53.082;18.218;2023-06-10T07:49:13;101581.70;;;25.39;37.26
75551;BME280;65071;53.082;18.218;2023-06-10T07:51:39;101584.45;;;25.54;37.51
75551;BME280;65071;53.082;18.218;2023-06-10T07:54:06;101589.55;;;25.42;37.24
75551;BME280;65071;53.082;18.218;2023-06-10T07:56:32;101584.77;;;25.53;37.31
75551;BME280;65071;53.082;18.218;2023-06-10T07:58:59;101589.56;;;25.67;36.84
75551;BME280;65071;53.082;18.218;2023-06-10T08:01:26;101593.20;;;25.79;36.48
75551;BME280;65071;53.082;18.218;2023-06-10T08:03:52;101592.58;;;25.88;36.29
75551;BME280;65071;53.082;18.218;2023-06-10T08:06:19;101603.02;;;25.89;35.92
75551;BME280;65071;53.082;18.218;2023-06-10T08:08:45;101603.83;;;25.98;35.81
75551;BME280;65071;53.082;18.218;2023-06-10T08:11:13;101602.52;;;25.85;35.70
75551;BME280;65071;53.082;18.218;2023-06-10T08:13:40;101601.73;;;25.83;35.68
75551;BME280;65071;53.082;18.218;2023-06-10T08:16:06;101600.05;;;25.82;35.68
75551;BME280;65071;53.082;18.218;2023-06-10T08:18:34;101600.23;;;25.92;35.67
75551;BME280;65071;53.082;18.218;2023-06-10T08:21:00;101604.07;;;25.97;35.25
75551;BME280;65071;53.082;18.218;2023-06-10T08:23:27;101605.39;;;25.93;35.36
75551;BME280;65071;53.082;18.218;2023-06-10T08:25:54;101604.70;;;26.01;35.80
75551;BME280;65071;53.082;18.218;2023-06-10T08:28:20;101607.16;;;26.12;35.04
75551;BME280;65071;53.082;18.218;2023-06-10T08:30:47;101606.55;;;26.19;35.22
75551;BME280;65071;53.082;18.218;2023-06-10T08:33:14;101611.33;;;26.14;35.05
75551;BME280;65071;53.082;18.218;2023-06-10T08:35:40;101611.90;;;26.11;34.98
75551;BME280;65071;53.082;18.218;2023-06-10T08:38:07;101614.25;;;26.22;34.99
75551;BME280;65071;53.082;18.218;2023-06-10T08:40:34;101614.44;;;26.30;34.60
75551;BME280;65071;53.082;18.218;2023-06-10T08:43:06;101618.06;;;26.17;34.50
75551;BME280;65071;53.082;18.218;2023-06-10T08:45:36;101616.55;;;26.13;34.46
75551;BME280;65071;53.082;18.218;2023-06-10T08:48:03;101620.34;;;26.24;35.05
75551;BME280;65071;53.082;18.218;2023-06-10T08:50:35;101621.02;;;26.22;35.18
75551;BME280;65071;53.082;18.218;2023-06-10T08:53:06;101627.15;;;26.02;35.00
75551;BME280;65071;53.082;18.218;2023-06-10T08:55:37;101623.14;;;26.02;34.79
75551;BME280;65071;53.082;18.218;2023-06-10T08:58:04;101621.47;;;26.06;34.95
75551;BME280;65071;53.082;18.218;2023-06-10T09:00:31;101625.73;;;26.04;35.24
75551;BME280;65071;53.082;18.218;2023-06-10T09:02:58;101622.79;;;25.94;35.25
75551;BME280;65071;53.082;18.218;2023-06-10T09:05:26;101616.39;;;26.04;35.44
75551;BME280;65071;53.082;18.218;2023-06-10T09:07:56;101621.36;;;26.28;35.20
75551;BME280;65071;53.082;18.218;2023-06-10T09:10:23;101619.99;;;26.25;34.47
75551;BME280;65071;53.082;18.218;2023-06-10T09:12:50;101614.23;;;26.21;34.73
75551;BME280;65071;53.082;18.218;2023-06-10T09:15:17;101615.11;;;26.18;35.09
75551;BME280;65071;53.082;18.218;2023-06-10T09:17:44;101613.73;;;26.22;35.08
75551;BME280;65071;53.082;18.218;2023-06-10T09:20:11;101611.48;;;26.23;35.40
75551;BME280;65071;53.082;18.218;2023-06-10T09:22:38;101617.58;;;26.33;34.91
75551;BME280;65071;53.082;18.218;2023-06-10T09:25:09;101618.08;;;26.29;33.45
75551;BME280;65071;53.082;18.218;2023-06-10T09:27:52;101620.11;;;26.23;32.98
75551;BME280;65071;53.082;18.218;2023-06-10T09:30:29;101620.91;;;26.20;33.84
75551;BME280;65071;53.082;18.218;2023-06-10T09:32:57;101614.55;;;26.05;33.86
75551;BME280;65071;53.082;18.218;2023-06-10T09:35:24;101621.52;;;25.96;34.43
75551;BME280;65071;53.082;18.218;2023-06-10T09:37:53;101616.05;;;25.77;34.24
75551;BME280;65071;53.082;18.218;2023-06-10T09:40:20;101616.89;;;25.83;34.50
75551;BME280;65071;53.082;18.218;2023-06-10T09:42:56;101609.92;;;25.83;34.65
75551;BME280;65071;53.082;18.218;2023-06-10T09:45:23;101614.95;;;25.89;35.16
75551;BME280;65071;53.082;18.218;2023-06-10T09:47:53;101616.14;;;25.82;34.74
75551;BME280;65071;53.082;18.218;2023-06-10T09:50:20;101606.39;;;25.76;34.55
75551;BME280;65071;53.082;18.218;2023-06-10T09:52:47;101617.12;;;25.85;34.39
75551;BME280;65071;53.082;18.218;2023-06-10T09:55:17;101614.40;;;25.78;35.12
75551;BME280;65071;53.082;18.218;2023-06-10T09:57:44;101614.00;;;25.69;35.46
75551;BME280;65071;53.082;18.218;2023-06-10T10:00:15;101607.55;;;25.81;35.88
75551;BME280;65071;53.082;18.218;2023-06-10T10:02:47;101608.04;;;25.83;35.42
75551;BME280;65071;53.082;18.218;2023-06-10T10:05:19;101603.70;;;25.98;35.20
75551;BME280;65071;53.082;18.218;2023-06-10T10:07:46;101609.61;;;26.07;34.11
75551;BME280;65071;53.082;18.218;2023-06-10T10:10:14;101605.70;;;26.16;34.14
75551;BME280;65071;53.082;18.218;2023-06-10T10:12:42;101609.75;;;26.13;34.31
75551;BME280;65071;53.082;18.218;2023-06-10T10:15:10;101610.42;;;26.06;33.79
75551;BME280;65071;53.082;18.218;2023-06-10T10:17:46;101607.31;;;26.09;33.05
75551;BME280;65071;53.082;18.218;2023-06-10T10:20:17;101601.98;;;26.12;32.84
75551;BME280;65071;53.082;18.218;2023-06-10T10:22:47;101601.18;;;26.19;32.69
75551;BME280;65071;53.082;18.218;2023-06-10T10:25:23;101602.56;;;26.15;32.02
75551;BME280;65071;53.082;18.218;2023-06-10T10:28:08;101605.64;;;26.20;32.22
75551;BME280;65071;53.082;18.218;2023-06-10T10:30:45;101598.97;;;26.17;32.04
75551;BME280;65071;53.082;18.218;2023-06-10T10:33:16;101602.35;;;26.21;32.04
75551;BME280;65071;53.082;18.218;2023-06-10T10:35:46;101606.39;;;26.21;32.19
75551;BME280;65071;53.082;18.218;2023-06-10T10:38:12;101597.01;;;26.22;31.04
75551;BME280;65071;53.082;18.218;2023-06-10T10:40:40;101595.93;;;26.17;31.19
75551;BME280;65071;53.082;18.218;2023-06-10T10:43:08;101593.59;;;26.35;31.40
75551;BME280;65071;53.082;18.218;2023-06-10T10:45:35;101600.73;;;26.41;31.37
75551;BME280;65071;53.082;18.218;2023-06-10T10:48:05;101602.76;;;26.34;30.43
75551;BME280;65071;53.082;18.218;2023-06-10T10:50:35;101599.38;;;26.30;30.08
75551;BME280;65071;53.082;18.218;2023-06-10T10:53:03;101602.42;;;26.28;30.50
75551;BME280;65071;53.082;18.218;2023-06-10T10:55:30;101601.23;;;26.27;31.13
75551;BME280;65071;53.082;18.218;2023-06-10T10:58:13;101588.23;;;26.21;31.12
75551;BME280;65071;53.082;18.218;2023-06-10T11:00:45;101593.46;;;26.12;30.58
75551;BME280;65071;53.082;18.218;2023-06-10T11:03:14;101595.91;;;26.22;30.11
75551;BME280;65071;53.082;18.218;2023-06-10T11:05:42;101607.28;;;26.16;29.66
75551;BME280;65071;53.082;18.218;2023-06-10T11:08:11;101586.56;;;26.04;29.72
75551;BME280;65071;53.082;18.218;2023-06-10T11:10:39;101587.63;;;26.17;29.54
75551;BME280;65071;53.082;18.218;2023-06-10T11:15:38;101593.78;;;26.22;29.40
75551;BME280;65071;53.082;18.218;2023-06-10T11:20:50;101589.99;;;26.21;29.47
75551;BME280;65071;53.082;18.218;2023-06-10T11:33:56;101599.48;;;26.24;28.02
75551;BME280;65071;53.082;18.218;2023-06-10T11:36:24;101597.02;;;26.25;27.61
75551;BME280;65071;53.082;18.218;2023-06-10T11:38:55;101584.71;;;26.17;27.73
75551;BME280;65071;53.082;18.218;2023-06-10T11:41:26;101596.31;;;26.04;27.71
75551;BME280;65071;53.082;18.218;2023-06-10T11:43:53;101590.75;;;26.13;27.61
75551;BME280;65071;53.082;18.218;2023-06-10T11:46:23;101587.11;;;26.21;27.23
75551;BME280;65071;53.082;18.218;2023-06-10T11:48:52;101587.60;;;26.20;26.74
75551;BME280;65071;53.082;18.218;2023-06-10T11:51:19;101589.55;;;26.23;26.75
75551;BME280;65071;53.082;18.218;2023-06-10T11:53:49;101588.68;;;26.12;26.91
75551;BME280;65071;53.082;18.218;2023-06-10T11:56:23;101578.09;;;26.16;27.06
75551;BME280;65071;53.082;18.218;2023-06-10T11:59:04;101587.25;;;26.26;27.03
75551;BME280;65071;53.082;18.218;2023-06-10T12:01:34;101583.10;;;26.10;26.68
75551;BME280;65071;53.082;18.218;2023-06-10T12:04:07;101579.41;;;26.08;27.02
75551;BME280;65071;53.082;18.218;2023-06-10T12:06:53;101583.33;;;26.15;26.85
75551;BME280;65071;53.082;18.218;2023-06-10T12:09:22;101579.55;;;26.15;26.62
75551;BME280;65071;53.082;18.218;2023-06-10T12:11:58;101574.86;;;26.12;26.64
75551;BME280;65071;53.082;18.218;2023-06-10T12:20:00;101579.13;;;26.14;25.94
75551;BME280;65071;53.082;18.218;2023-06-10T12:22:27;101582.77;;;26.18;25.76
75551;BME280;65071;53.082;18.218;2023-06-10T12:25:03;101575.73;;;26.13;25.65
75551;BME280;65071;53.082;18.218;2023-06-10T12:27:31;101574.02;;;26.22;25.59
75551;BME280;65071;53.082;18.218;2023-06-10T12:29:59;101579.88;;;26.23;23.47
75551;BME280;65071;53.082;18.218;2023-06-10T12:32:44;101584.83;;;26.14;22.95
75551;BME280;65071;53.082;18.218;2023-06-10T12:35:15;101577.16;;;26.05;23.24
75551;BME280;65071;53.082;18.218;2023-06-10T12:38:01;101569.80;;;26.06;23.69
75551;BME280;65071;53.082;18.218;2023-06-10T12:40:39;101581.25;;;26.04;22.70
75551;BME280;65071;53.082;18.218;2023-06-10T12:43:10;101582.91;;;26.00;21.99
75551;BME280;65071;53.082;18.218;2023-06-10T12:45:38;101575.60;;;26.02;21.29
75551;BME280;65071;53.082;18.218;2023-06-10T12:48:22;101579.21;;;26.04;21.41
75551;BME280;65071;53.082;18.218;2023-06-10T12:50:54;101577.20;;;25.99;21.33
75551;BME280;65071;53.082;18.218;2023-06-10T12:53:22;101578.77;;;25.96;21.49
75551;BME280;65071;53.082;18.218;2023-06-10T12:55:53;101573.88;;;25.90;20.74
75551;BME280;65071;53.082;18.218;2023-06-10T12:58:20;101573.18;;;25.94;21.67
75551;BME280;65071;53.082;18.218;2023-06-10T13:00:48;101574.61;;;25.94;22.36
75551;BME280;65071;53.082;18.218;2023-06-10T13:03:15;101571.05;;;25.93;23.31
75551;BME280;65071;53.082;18.218;2023-06-10T13:05:41;101566.13;;;25.93;23.77
75551;BME280;65071;53.082;18.218;2023-06-10T13:08:08;101567.41;;;25.88;24.53
75551;BME280;65071;53.082;18.218;2023-06-10T13:10:36;101557.81;;;25.87;24.39
75551;BME280;65071;53.082;18.218;2023-06-10T13:13:03;101553.88;;;25.87;24.45